Vetal, South Dakota
Current Conditions -  °F | °C
As of 10:52 PM on Monday 20 Oct 2014 (Local Time) from KIEN Reporting Station
Clear Clear  
Wind Chill: 63°   Ceiling: Unl
Heat Index: 63°   Visibility: 10mi
Dew Point: 39°   Wind: 15mph
Humidity: 41%   Direction: 190°S
Pressure: 29.94"   Gusts: 25mph
Location:  43.2013°N, 101.679°W
Report Text: KIEN 210452Z AUTO 19013G22KT 10SM CLR 17/04 A2994 RMK AO2 SLP114 T01720039 PWINO $
Loading
Personal Weather Stations






























Interactive Weather Map
Tropical Storm Tracking
New forecast layout! Learn more

10-Day Weather Forecast

Advertisements
Track Severe Weather on mobile